Time;durP1;ratioP1;P1;durP2;ratioP2;P2;SDS_P1;SDS_P2;PMS_P1;PMS_P2;Temp;Humidity;BMP_temperature;BMP_pressure;BME280_temperature;BME280_humidity;BME280_pressure;Samples;Min_cycle;Max_cycle;Signal;HPM_P1;HPM_P2
2023/04/06 00:00:34;;;;;;;;;;;8.10;55.90;;;;;;5089071;28;19970;-69
2023/04/06 00:03:00;;;;;;;;;;;8.10;55.30;;;;;;5096630;28;19928;-69
2023/04/06 00:05:30;;;;;;;;;;;8.10;54.70;;;;;;5093216;28;19924;-69
2023/04/06 00:07:57;;;;;;;;;;;8.10;54.60;;;;;;5089883;28;19924;-68
2023/04/06 00:10:26;;;;;;;;;;;8.10;53.90;;;;;;5093303;28;20017;-68
2023/04/06 00:12:52;;;;;;;;;;;8.10;53.30;;;;;;5092653;28;20018;-68
2023/04/06 00:15:19;;;;;;;;;;;8.20;53.00;;;;;;5092270;28;19932;-68
2023/04/06 00:17:46;;;;;;;;;;;8.10;52.60;;;;;;5087642;28;19924;-68
2023/04/06 00:20:13;;;;;;;;;;;8.10;52.50;;;;;;5091967;28;19974;-68
2023/04/06 00:22:40;;;;;;;;;;;8.10;52.40;;;;;;5090050;28;19981;-68
2023/04/06 00:25:07;;;;;;;;;;;8.10;52.40;;;;;;5093727;28;19928;-68
2023/04/06 00:27:35;;;;;;;;;;;8.10;52.10;;;;;;5091985;28;19924;-69
2023/04/06 00:30:02;;;;;;;;;;;8.10;52.00;;;;;;5094663;28;19927;-68
2023/04/06 00:32:28;;;;;;;;;;;8.10;51.80;;;;;;5087231;28;20372;-69
2023/04/06 00:34:55;;;;;;;;;;;8.10;51.80;;;;;;5092525;28;19928;-70
2023/04/06 00:37:22;;;;;;;;;;;8.10;51.30;;;;;;5089821;28;20452;-69
2023/04/06 00:39:51;;;;;;;;;;;8.10;51.60;;;;;;5091596;28;19924;-69
2023/04/06 00:42:24;;;;;;;;;;;8.10;51.90;;;;;;5091560;28;20015;-69
2023/04/06 00:44:53;;;;;;;;;;;8.10;50.70;;;;;;5087556;28;19938;-69
2023/04/06 00:47:20;;;;;;;;;;;8.10;50.10;;;;;;5099655;28;19977;-69
2023/04/06 00:49:46;;;;;;;;;;;8.10;50.00;;;;;;5093186;28;19928;-69
2023/04/06 00:52:13;;;;;;;;;;;8.10;49.60;;;;;;5091895;28;19927;-69
2023/04/06 00:54:40;;;;;;;;;;;8.10;49.70;;;;;;5089714;28;19981;-69
2023/04/06 00:57:06;;;;;;;;;;;8.10;49.90;;;;;;5093020;28;19924;-69
2023/04/06 00:59:33;;;;;;;;;;;8.10;51.70;;;;;;5089233;28;19927;-69
2023/04/06 01:02:02;;;;;;;;;;;8.10;52.00;;;;;;5088161;28;19979;-69
2023/04/06 01:04:28;;;;;;;;;;;8.10;52.20;;;;;;5091282;28;20283;-69
2023/04/06 01:06:55;;;;;;;;;;;8.00;52.30;;;;;;5099981;28;19973;-69
2023/04/06 01:09:23;;;;;;;;;;;8.10;52.30;;;;;;5091192;28;20009;-69
2023/04/06 01:11:50;;;;;;;;;;;8.10;52.40;;;;;;5090292;28;19978;-70
2023/04/06 01:14:17;;;;;;;;;;;8.10;52.60;;;;;;5085713;28;19993;-68
2023/04/06 01:16:43;;;;;;;;;;;8.10;53.30;;;;;;5078259;28;20379;-69
2023/04/06 01:19:12;;;;;;;;;;;8.00;53.70;;;;;;5089996;28;20383;-68
2023/04/06 01:21:39;;;;;;;;;;;7.90;54.00;;;;;;5092319;28;19928;-69
2023/04/06 01:24:08;;;;;;;;;;;7.90;55.10;;;;;;5089999;28;19940;-69
2023/04/06 01:26:35;;;;;;;;;;;7.80;56.00;;;;;;5086884;28;20050;-68
2023/04/06 01:29:02;;;;;;;;;;;7.80;56.90;;;;;;5086599;28;19923;-69
2023/04/06 01:31:29;;;;;;;;;;;7.70;57.80;;;;;;5087751;28;20049;-68
2023/04/06 01:33:56;;;;;;;;;;;7.70;58.50;;;;;;5090372;28;19977;-68
2023/04/06 01:36:23;;;;;;;;;;;7.60;59.50;;;;;;5090783;28;19929;-68
2023/04/06 01:38:50;;;;;;;;;;;7.50;59.70;;;;;;5088802;28;20741;-68
2023/04/06 01:41:18;;;;;;;;;;;7.50;60.30;;;;;;5103811;28;19931;-68
2023/04/06 01:43:45;;;;;;;;;;;7.50;60.40;;;;;;5089736;28;19928;-69
2023/04/06 01:46:11;;;;;;;;;;;7.40;60.60;;;;;;5105743;28;19924;-69
2023/04/06 01:48:38;;;;;;;;;;;7.40;60.80;;;;;;5090168;28;20519;-69
2023/04/06 01:51:05;;;;;;;;;;;7.40;61.20;;;;;;5094382;28;19928;-69
2023/04/06 01:53:32;;;;;;;;;;;7.40;61.90;;;;;;5088615;28;19932;-70
2023/04/06 01:55:58;;;;;;;;;;;7.40;62.60;;;;;;5104801;28;19924;-70
2023/04/06 01:58:27;;;;;;;;;;;7.30;63.40;;;;;;5094120;28;19932;-70
2023/04/06 02:00:54;;;;;;;;;;;;;;;;;;5100299;28;20375;-70
2023/04/06 02:03:21;;;;;;;;;;;7.00;85.00;;;;;;5089717;28;19981;-70
2023/04/06 02:05:47;;;;;;;;;;;7.20;69.70;;;;;;5089614;28;19924;-70
2023/04/06 02:08:14;;;;;;;;;;;7.20;66.30;;;;;;5091636;28;19924;-70
2023/04/06 02:10:41;;;;;;;;;;;;;;;;;;5101754;28;19932;-70
2023/04/06 02:13:08;;;;;;;;;;;7.20;64.20;;;;;;5075065;28;19925;-71
2023/04/06 02:15:36;;;;;;;;;;;7.20;62.80;;;;;;5082732;28;19928;-70
2023/04/06 02:18:02;;;;;;;;;;;7.10;62.70;;;;;;5087825;28;19928;-70
2023/04/06 02:20:29;;;;;;;;;;;7.10;63.60;;;;;;5090034;28;19970;-70
2023/04/06 02:22:57;;;;;;;;;;;7.10;64.00;;;;;;5099859;28;20368;-70
2023/04/06 02:25:24;;;;;;;;;;;7.10;65.70;;;;;;5089249;28;19978;-70
2023/04/06 02:27:51;;;;;;;;;;;7.10;68.70;;;;;;5092690;28;19964;-70
2023/04/06 02:30:17;;;;;;;;;;;7.10;69.60;;;;;;5087159;28;20295;-70
2023/04/06 02:32:45;;;;;;;;;;;7.00;71.10;;;;;;5087925;28;20687;-70
2023/04/06 02:35:12;;;;;;;;;;;5.10;79.50;;;;;;5088372;28;19924;-70
2023/04/06 02:37:39;;;;;;;;;;;7.00;84.70;;;;;;5089231;28;20375;-70
2023/04/06 02:40:07;;;;;;;;;;;7.00;73.60;;;;;;5086194;28;20389;-70
2023/04/06 02:42:34;;;;;;;;;;;6.70;82.00;;;;;;5093657;28;19928;-70
2023/04/06 02:45:01;;;;;;;;;;;6.90;73.60;;;;;;5097959;28;19924;-70
2023/04/06 02:47:28;;;;;;;;;;;7.00;82.20;;;;;;5086709;28;20436;-70
2023/04/06 02:49:56;;;;;;;;;;;6.80;89.60;;;;;;5090371;28;19924;-70
2023/04/06 02:52:23;;;;;;;;;;;7.00;90.30;;;;;;5088779;28;19979;-71
2023/04/06 02:54:51;;;;;;;;;;;;;;;;;;5088169;28;20031;-71
2023/04/06 02:57:17;;;;;;;;;;;8.00;95.20;;;;;;5087937;28;19925;-70
2023/04/06 02:59:44;;;;;;;;;;;7.00;96.40;;;;;;5092459;28;19928;-71
2023/04/06 03:02:11;;;;;;;;;;;6.70;92.90;;;;;;5089959;28;19924;-70
2023/04/06 03:04:37;;;;;;;;;;;6.70;85.40;;;;;;5096559;28;19969;-71
2023/04/06 03:07:06;;;;;;;;;;;6.40;87.00;;;;;;5108318;28;19977;-70
2023/04/06 03:09:33;;;;;;;;;;;6.80;82.30;;;;;;5095521;28;19970;-70
2023/04/06 03:12:00;;;;;;;;;;;6.60;81.50;;;;;;5088938;28;19924;-70
2023/04/06 03:14:28;;;;;;;;;;;6.60;83.00;;;;;;5092098;28;20386;-70
2023/04/06 03:16:54;;;;;;;;;;;6.50;82.90;;;;;;5089660;28;20446;-71
2023/04/06 03:19:21;;;;;;;;;;;6.50;85.20;;;;;;5092139;28;19924;-70
2023/04/06 03:21:48;;;;;;;;;;;6.50;90.20;;;;;;5096077;28;19924;-70
2023/04/06 03:24:15;;;;;;;;;;;;;;;;;;5094578;28;20341;-70
2023/04/06 03:26:43;;;;;;;;;;;5.60;85.20;;;;;;5095274;28;19924;-70
2023/04/06 03:29:10;;;;;;;;;;;6.60;85.40;;;;;;5087930;28;19939;-71
2023/04/06 03:31:37;;;;;;;;;;;6.60;84.40;;;;;;5108083;28;19932;-70
2023/04/06 03:34:03;;;;;;;;;;;6.60;84.20;;;;;;5093598;28;19988;-70
2023/04/06 03:36:30;;;;;;;;;;;6.70;85.40;;;;;;5114082;28;19924;-70
2023/04/06 03:38:57;;;;;;;;;;;6.60;86.10;;;;;;5102204;28;19995;-70
2023/04/06 03:41:24;;;;;;;;;;;6.60;86.70;;;;;;5094920;28;19928;-69
2023/04/06 03:43:52;;;;;;;;;;;6.70;87.20;;;;;;5088901;28;21022;-70
2023/04/06 03:46:19;;;;;;;;;;;;;;;;;;5096513;28;19924;-70
2023/04/06 03:48:49;;;;;;;;;;;6.70;90.40;;;;;;5093125;28;20379;-71
2023/04/06 03:51:17;;;;;;;;;;;;;;;;;;5100782;28;20635;-71
2023/04/06 03:53:44;;;;;;;;;;;6.80;90.70;;;;;;5084680;28;19931;-71
2023/04/06 03:56:11;;;;;;;;;;;6.60;90.70;;;;;;5101398;28;19924;-71
2023/04/06 03:58:37;;;;;;;;;;;7.00;92.10;;;;;;5093483;28;19985;-72
2023/04/06 04:01:06;;;;;;;;;;;6.80;93.10;;;;;;5086900;28;20385;-71
2023/04/06 04:03:33;;;;;;;;;;;7.10;94.20;;;;;;5091409;28;19964;-71
2023/04/06 04:06:00;;;;;;;;;;;7.60;98.40;;;;;;5108271;28;19938;-70
2023/04/06 04:08:27;;;;;;;;;;;6.60;95.70;;;;;;5077490;28;19928;-71
2023/04/06 04:10:53;;;;;;;;;;;6.60;95.60;;;;;;5109973;28;20302;-70
2023/04/06 04:13:20;;;;;;;;;;;6.50;95.60;;;;;;5094543;28;20020;-70
2023/04/06 04:15:47;;;;;;;;;;;6.60;95.80;;;;;;5097528;28;19993;-70
2023/04/06 04:18:15;;;;;;;;;;;6.60;96.30;;;;;;5090303;28;19924;-70
2023/04/06 04:20:42;;;;;;;;;;;;;;;;;;5108648;28;19976;-70
2023/04/06 04:23:09;;;;;;;;;;;;;;;;;;5090767;28;19924;-69
2023/04/06 04:25:36;;;;;;;;;;;6.40;98.60;;;;;;5096744;28;19993;-70
2023/04/06 04:28:03;;;;;;;;;;;6.70;98.60;;;;;;5092447;28;19924;-70
2023/04/06 04:30:30;;;;;;;;;;;6.70;99.90;;;;;;5089690;28;20589;-69
2023/04/06 04:32:56;;;;;;;;;;;7.90;97.80;;;;;;5092618;28;20437;-70
2023/04/06 04:35:25;;;;;;;;;;;7.00;95.20;;;;;;5079587;28;19928;-69
2023/04/06 04:37:51;;;;;;;;;;;6.80;94.40;;;;;;5088383;28;19924;-71
2023/04/06 04:40:18;;;;;;;;;;;6.70;93.40;;;;;;5093427;28;19930;-69
2023/04/06 04:42:46;;;;;;;;;;;6.90;94.40;;;;;;5090241;28;20037;-69
2023/04/06 04:45:12;;;;;;;;;;;6.90;95.00;;;;;;5098144;28;20359;-70
2023/04/06 04:47:39;;;;;;;;;;;6.60;99.10;;;;;;5091412;28;19924;-70
2023/04/06 04:50:06;;;;;;;;;;;6.60;95.10;;;;;;5089880;28;19986;-71
2023/04/06 04:52:33;;;;;;;;;;;;;;;;;;5089573;28;19924;-70
2023/04/06 04:55:02;;;;;;;;;;;6.90;97.40;;;;;;5090847;28;19977;-71
2023/04/06 04:57:29;;;;;;;;;;;7.40;97.90;;;;;;5089734;28;19924;-70
2023/04/06 04:59:57;;;;;;;;;;;6.90;98.20;;;;;;5087366;28;19967;-71
2023/04/06 05:02:23;;;;;;;;;;;7.10;97.40;;;;;;5099573;28;19924;-71
2023/04/06 05:04:50;;;;;;;;;;;7.00;97.50;;;;;;5090682;28;19931;-70
2023/04/06 05:07:18;;;;;;;;;;;7.00;97.10;;;;;;5093404;28;19928;-71
2023/04/06 05:09:45;;;;;;;;;;;7.00;99.80;;;;;;5090527;28;20005;-70
2023/04/06 05:12:13;;;;;;;;;;;7.00;98.90;;;;;;5089533;28;19924;-70
2023/04/06 05:14:40;;;;;;;;;;;7.40;99.80;;;;;;5094248;28;19932;-69
2023/04/06 05:17:07;;;;;;;;;;;7.50;99.80;;;;;;5091634;28;19960;-69
2023/04/06 05:19:33;;;;;;;;;;;6.90;99.90;;;;;;5089058;28;19977;-70
2023/04/06 05:22:00;;;;;;;;;;;6.90;99.90;;;;;;5108015;28;19924;-70
2023/04/06 05:24:27;;;;;;;;;;;7.00;99.90;;;;;;5094827;28;19936;-70
2023/04/06 05:26:54;;;;;;;;;;;7.20;99.90;;;;;;5095767;28;19954;-70
2023/04/06 05:29:22;;;;;;;;;;;7.80;99.90;;;;;;5093269;28;19924;-70
2023/04/06 05:31:48;;;;;;;;;;;7.20;99.90;;;;;;5094369;28;20371;-70
2023/04/06 05:34:15;;;;;;;;;;;;;;;;;;5096416;28;20272;-71
2023/04/06 05:36:42;;;;;;;;;;;;;;;;;;5104371;28;19927;-70
2023/04/06 05:39:10;;;;;;;;;;;;;;;;;;5092260;28;19923;-70
2023/04/06 05:41:37;;;;;;;;;;;;;;;;;;5094705;28;20303;-71
2023/04/06 05:44:04;;;;;;;;;;;;;;;;;;5099515;28;19924;-71
2023/04/06 05:46:31;;;;;;;;;;;;;;;;;;5090212;28;20348;-70
2023/04/06 05:48:58;;;;;;;;;;;;;;;;;;5091217;28;20322;-71
2023/04/06 05:51:26;;;;;;;;;;;;;;;;;;5095329;28;19966;-70
2023/04/06 05:53:53;;;;;;;;;;;;;;;;;;5089420;28;19929;-71
2023/04/06 05:56:20;;;;;;;;;;;;;;;;;;5089285;28;19924;-71
2023/04/06 05:58:47;;;;;;;;;;;;;;;;;;5091709;28;19924;-71
2023/04/06 06:01:15;;;;;;;;;;;;;;;;;;5087328;28;19963;-70
2023/04/06 06:03:42;;;;;;;;;;;;;;;;;;5088385;28;20022;-70
2023/04/06 06:06:09;;;;;;;;;;;;;;;;;;5083973;28;19924;-70
2023/04/06 06:08:36;;;;;;;;;;;;;;;;;;5097572;22;21246;-72
2023/04/06 06:11:04;;;;;;;;;;;;;;;;;;5071639;28;19982;-70
2023/04/06 06:13:31;;;;;;;;;;;;;;;;;;5088521;28;20027;-71
2023/04/06 06:15:58;;;;;;;;;;;;;;;;;;5089275;28;20568;-70
2023/04/06 06:18:25;;;;;;;;;;;;;;;;;;5088138;28;19928;-70
2023/04/06 06:20:52;;;;;;;;;;;;;;;;;;5084821;28;20338;-69
2023/04/06 06:23:19;;;;;;;;;;;;;;;;;;5088452;28;19966;-73
2023/04/06 06:25:46;;;;;;;;;;;;;;;;;;5093852;28;19924;-72
2023/04/06 06:28:13;;;;;;;;;;;;;;;;;;5100367;28;19931;-71
2023/04/06 06:30:40;;;;;;;;;;;;;;;;;;5092960;28;19928;-72
2023/04/06 06:33:07;;;;;;;;;;;;;;;;;;5084465;28;19923;-69
2023/04/06 06:35:34;;;;;;;;;;;;;;;;;;5089573;28;20386;-72
2023/04/06 06:38:01;;;;;;;;;;;;;;;;;;5109705;28;19964;-71
2023/04/06 06:40:28;;;;;;;;;;;;;;;;;;5097070;28;19936;-71
2023/04/06 06:42:55;;;;;;;;;;;;;;;;;;5079455;28;20577;-71
2023/04/06 06:45:25;;;;;;;;;;;;;;;;;;5083849;28;20022;-73
2023/04/06 06:47:52;;;;;;;;;;;;;;;;;;5083643;28;19932;-72
2023/04/06 06:50:19;;;;;;;;;;;;;;;;;;5084019;28;19993;-71
2023/04/06 06:52:46;;;;;;;;;;;;;;;;;;5082142;28;19981;-71
2023/04/06 06:55:13;;;;;;;;;;;;;;;;;;5089467;28;20026;-72
2023/04/06 06:57:42;;;;;;;;;;;;;;;;;;5103183;28;20338;-72
2023/04/06 07:00:09;;;;;;;;;;;;;;;;;;5087273;28;20392;-72
2023/04/06 07:02:36;;;;;;;;;;;;;;;;;;5094370;28;19924;-72
2023/04/06 07:05:03;;;;;;;;;;;;;;;;;;5088536;28;19924;-71
2023/04/06 07:07:30;;;;;;;;;;;;;;;;;;5086162;28;19938;-71
2023/04/06 07:09:57;;;;;;;;;;;;;;;;;;5091891;28;19932;-72
2023/04/06 07:12:25;;;;;;;;;;;;;;;;;;5087853;28;19924;-71
2023/04/06 07:14:52;;;;;;;;;;;;;;;;;;5091560;28;19940;-71
2023/04/06 07:17:19;;;;;;;;;;;;;;;;;;5089538;28;19927;-71
2023/04/06 07:19:46;;;;;;;;;;;;;;;;;;5090121;28;19939;-72
2023/04/06 07:22:14;;;;;;;;;;;7.50;99.90;;;;;;5088543;28;19932;-70
2023/04/06 07:24:41;;;;;;;;;;;7.60;99.90;;;;;;5090568;28;19924;-70
2023/04/06 07:27:07;;;;;;;;;;;8.20;99.90;;;;;;5091443;28;20164;-71
2023/04/06 07:29:34;;;;;;;;;;;7.80;99.90;;;;;;5097192;28;19925;-73
2023/04/06 07:32:01;;;;;;;;;;;7.80;99.90;;;;;;5086808;28;20367;-72
2023/04/06 07:34:28;;;;;;;;;;;7.80;99.90;;;;;;5093631;28;19979;-71
2023/04/06 07:36:55;;;;;;;;;;;7.80;99.90;;;;;;5094769;28;19997;-73
2023/04/06 07:39:23;;;;;;;;;;;7.80;99.90;;;;;;5074747;28;19977;-76
2023/04/06 07:41:50;;;;;;;;;;;;;;;;;;5095127;28;19924;-73
2023/04/06 07:44:17;;;;;;;;;;;;;;;;;;5090689;28;19928;-73
2023/04/06 07:46:44;;;;;;;;;;;;;;;;;;5095731;28;19924;-73
2023/04/06 07:49:11;;;;;;;;;;;;;;;;;;5087403;28;19939;-75
2023/04/06 07:51:38;;;;;;;;;;;;;;;;;;5090452;28;19935;-71
2023/04/06 07:54:05;;;;;;;;;;;;;;;;;;5091351;28;19949;-73
2023/04/06 07:56:32;;;;;;;;;;;;;;;;;;5094992;28;19982;-73
2023/04/06 07:58:59;;;;;;;;;;;;;;;;;;5078755;28;21452;-71
2023/04/06 08:01:27;;;;;;;;;;;;;;;;;;5091328;28;19936;-73
2023/04/06 08:03:56;;;;;;;;;;;8.00;99.90;;;;;;5084440;28;20011;-74
2023/04/06 08:06:23;;;;;;;;;;;8.10;99.90;;;;;;5089713;28;19934;-74
2023/04/06 08:08:50;;;;;;;;;;;7.90;99.90;;;;;;5092766;28;19924;-74
2023/04/06 08:11:16;;;;;;;;;;;8.10;99.90;;;;;;5087391;28;19954;-73
2023/04/06 08:13:43;;;;;;;;;;;7.90;99.90;;;;;;5085086;28;20500;-74
2023/04/06 08:16:10;;;;;;;;;;;7.90;99.90;;;;;;5085123;28;19928;-72
2023/04/06 08:18:37;;;;;;;;;;;7.90;99.90;;;;;;5080868;28;19936;-73
2023/04/06 08:21:05;;;;;;;;;;;8.00;99.90;;;;;;5088835;28;19924;-73
2023/04/06 08:23:32;;;;;;;;;;;7.60;99.90;;;;;;5087379;28;20291;-79
2023/04/06 08:25:59;;;;;;;;;;;7.50;99.90;;;;;;5089646;28;20387;-76
2023/04/06 08:28:25;;;;;;;;;;;7.90;99.90;;;;;;5089149;28;20357;-78
2023/04/06 08:30:52;;;;;;;;;;;8.10;99.90;;;;;;5082122;28;19924;-74
2023/04/06 08:33:20;;;;;;;;;;;7.90;99.90;;;;;;5078545;28;19923;-74
2023/04/06 08:35:47;;;;;;;;;;;7.90;99.90;;;;;;5087429;28;20012;-73
2023/04/06 08:38:16;;;;;;;;;;;8.00;99.90;;;;;;5090987;28;19928;-74
2023/04/06 08:40:44;;;;;;;;;;;7.90;99.90;;;;;;5084182;28;19969;-74
2023/04/06 08:43:14;;;;;;;;;;;8.00;99.90;;;;;;5088619;28;19993;-73
2023/04/06 08:45:42;;;;;;;;;;;7.80;99.90;;;;;;5091492;28;19932;-74
2023/04/06 08:48:09;;;;;;;;;;;8.40;99.90;;;;;;5084923;28;19924;-74
2023/04/06 08:50:37;;;;;;;;;;;8.10;99.90;;;;;;5088169;28;19936;-74
2023/04/06 08:53:04;;;;;;;;;;;8.10;99.90;;;;;;5094086;28;19931;-73
2023/04/06 08:55:31;;;;;;;;;;;;;;;;;;5087066;28;19932;-73
2023/04/06 08:58:00;;;;;;;;;;;8.40;99.90;;;;;;5087322;28;19930;-74
2023/04/06 09:00:28;;;;;;;;;;;8.40;99.90;;;;;;5084932;28;20279;-73
2023/04/06 09:02:55;;;;;;;;;;;8.40;99.90;;;;;;5088223;28;19977;-73
2023/04/06 09:05:23;;;;;;;;;;;8.50;99.90;;;;;;5084793;28;19932;-74
2023/04/06 09:07:50;;;;;;;;;;;8.60;99.90;;;;;;5088056;28;19969;-74
2023/04/06 09:10:18;;;;;;;;;;;;;;;;;;5086792;28;19927;-73
2023/04/06 09:12:45;;;;;;;;;;;8.60;99.90;;;;;;5088190;28;19943;-74
2023/04/06 09:15:20;;;;;;;;;;;8.50;99.90;;;;;;5088253;28;20294;-75
2023/04/06 09:17:47;;;;;;;;;;;8.50;99.90;;;;;;5090163;28;19924;-75
2023/04/06 09:20:14;;;;;;;;;;;8.30;99.90;;;;;;5088783;28;19932;-73
2023/04/06 09:22:41;;;;;;;;;;;8.30;99.90;;;;;;5087594;28;20393;-74
2023/04/06 09:25:08;;;;;;;;;;;;;;;;;;5083307;28;19997;-75
2023/04/06 09:27:36;;;;;;;;;;;8.30;99.90;;;;;;5097839;28;19927;-75
2023/04/06 09:30:07;;;;;;;;;;;8.50;99.90;;;;;;5085984;28;19928;-72
2023/04/06 09:32:45;;;;;;;;;;;8.70;99.90;;;;;;5091958;28;19939;-75
2023/04/06 09:35:12;;;;;;;;;;;8.50;99.90;;;;;;5078111;28;19924;-73
2023/04/06 09:37:39;;;;;;;;;;;8.70;99.90;;;;;;5078793;28;19924;-75
2023/04/06 09:40:07;;;;;;;;;;;8.70;99.90;;;;;;5079362;28;19931;-73
2023/04/06 09:42:35;;;;;;;;;;;8.70;99.90;;;;;;5078506;28;19939;-75
2023/04/06 09:45:02;;;;;;;;;;;8.80;99.90;;;;;;5082464;28;20336;-74
2023/04/06 09:47:29;;;;;;;;;;;8.70;99.90;;;;;;5080957;28;19981;-75
2023/04/06 09:49:58;;;;;;;;;;;8.90;99.90;;;;;;5085424;28;20279;-73
2023/04/06 09:52:27;;;;;;;;;;;9.00;99.90;;;;;;5082399;28;20383;-74
2023/04/06 09:54:55;;;;;;;;;;;9.10;99.90;;;;;;5082238;28;20399;-73
2023/04/06 09:57:26;;;;;;;;;;;8.90;99.90;;;;;;5080995;28;20432;-74
2023/04/06 09:59:59;;;;;;;;;;;8.70;99.90;;;;;;5082064;28;19931;-74
2023/04/06 10:02:29;;;;;;;;;;;8.40;99.90;;;;;;5086406;28;20375;-75
2023/04/06 10:05:00;;;;;;;;;;;8.70;99.90;;;;;;5085896;28;19942;-73
2023/04/06 10:07:28;;;;;;;;;;;;;;;;;;5077117;28;19924;-76
2023/04/06 10:09:56;;;;;;;;;;;8.70;99.90;;;;;;5079070;28;19932;-73
2023/04/06 10:12:23;;;;;;;;;;;;;;;;;;5085772;28;19929;-74
2023/04/06 10:14:50;;;;;;;;;;;8.50;99.90;;;;;;5084528;28;19925;-74
2023/04/06 10:17:17;;;;;;;;;;;8.50;99.90;;;;;;5080645;28;19947;-74
2023/04/06 10:19:55;;;;;;;;;;;8.40;99.90;;;;;;5076659;28;19970;-77
2023/04/06 10:22:25;;;;;;;;;;;8.60;99.90;;;;;;5083123;28;19924;-73
2023/04/06 10:24:52;;;;;;;;;;;8.50;99.90;;;;;;5087172;28;20006;-74
2023/04/06 10:27:28;;;;;;;;;;;8.60;99.90;;;;;;5082074;28;20390;-76
2023/04/06 10:29:54;;;;;;;;;;;8.80;99.90;;;;;;5080064;28;19932;-73
2023/04/06 10:32:21;;;;;;;;;;;8.70;99.90;;;;;;5084941;28;19924;-74
2023/04/06 10:34:48;;;;;;;;;;;8.70;99.90;;;;;;5078302;28;19974;-74
2023/04/06 10:37:16;;;;;;;;;;;8.80;99.90;;;;;;5084174;28;20367;-74
2023/04/06 10:39:58;;;;;;;;;;;9.00;99.90;;;;;;5086572;28;19931;-75
2023/04/06 10:42:25;;;;;;;;;;;9.00;99.90;;;;;;5106349;28;19928;-74
2023/04/06 10:44:52;;;;;;;;;;;9.60;99.90;;;;;;5086345;28;19924;-75
2023/04/06 10:47:19;;;;;;;;;;;9.70;99.90;;;;;;5087844;28;20483;-74
2023/04/06 10:49:46;;;;;;;;;;;9.30;99.90;;;;;;5085244;22;19924;-73
2023/04/06 10:52:13;;;;;;;;;;;;;;;;;;5066039;28;20449;-72
2023/04/06 10:54:40;;;;;;;;;;;;;;;;;;5064273;28;19929;-74
2023/04/06 10:57:07;;;;;;;;;;;;;;;;;;5069760;28;20015;-74
2023/04/06 10:59:34;;;;;;;;;;;;;;;;;;5070346;28;19928;-72
2023/04/06 11:02:04;;;;;;;;;;;;;;;;;;5068297;28;19932;-73
2023/04/06 11:04:32;;;;;;;;;;;9.50;99.90;;;;;;5071398;28;19924;-73
2023/04/06 11:06:59;;;;;;;;;;;9.20;99.90;;;;;;5069858;28;21144;-73
2023/04/06 11:09:26;;;;;;;;;;;9.30;99.90;;;;;;5071428;28;19928;-74
2023/04/06 11:11:54;;;;;;;;;;;9.30;99.90;;;;;;5069305;28;20777;-73
2023/04/06 11:14:20;;;;;;;;;;;9.40;99.90;;;;;;5070010;28;20349;-73
2023/04/06 11:16:48;;;;;;;;;;;9.50;99.90;;;;;;5078528;28;20723;-73
2023/04/06 11:19:15;;;;;;;;;;;9.30;99.90;;;;;;5067567;28;20344;-73
2023/04/06 11:21:47;;;;;;;;;;;9.20;99.90;;;;;;5067913;28;19974;-74
2023/04/06 11:24:15;;;;;;;;;;;9.10;99.90;;;;;;5076104;28;19925;-72
2023/04/06 11:26:43;;;;;;;;;;;9.10;99.90;;;;;;5074711;28;19930;-73
2023/04/06 11:29:11;;;;;;;;;;;9.10;99.90;;;;;;5075570;28;20018;-73
2023/04/06 11:31:41;;;;;;;;;;;9.10;99.90;;;;;;5067549;28;20418;-75
2023/04/06 11:34:16;;;;;;;;;;;9.20;99.90;;;;;;5063370;28;19932;-74
2023/04/06 11:36:45;;;;;;;;;;;9.30;99.90;;;;;;5066935;28;19937;-73
2023/04/06 11:39:12;;;;;;;;;;;9.40;99.90;;;;;;5068314;28;19925;-73
2023/04/06 11:41:40;;;;;;;;;;;9.60;99.90;;;;;;5075257;28;19931;-75
2023/04/06 11:44:07;;;;;;;;;;;;;;;;;;5064889;28;20023;-74
2023/04/06 11:46:34;;;;;;;;;;;9.30;99.90;;;;;;5063574;28;19937;-72
2023/04/06 11:49:01;;;;;;;;;;;7.90;99.90;;;;;;5078148;22;19928;-74
2023/04/06 11:51:28;;;;;;;;;;;9.50;99.90;;;;;;5084096;28;19985;-75
2023/04/06 11:53:57;;;;;;;;;;;9.30;99.90;;;;;;5084861;28;19931;-75
2023/04/06 11:56:27;;;;;;;;;;;9.30;99.90;;;;;;5088910;28;19924;-74
2023/04/06 11:58:55;;;;;;;;;;;9.40;99.90;;;;;;5086867;28;20260;-75
2023/04/06 12:01:22;;;;;;;;;;;9.30;99.90;;;;;;5091058;28;20340;-74
2023/04/06 12:03:50;;;;;;;;;;;9.50;99.90;;;;;;5090358;28;19971;-74
2023/04/06 12:06:16;;;;;;;;;;;9.40;99.90;;;;;;5087338;28;20406;-74
2023/04/06 12:08:44;;;;;;;;;;;9.40;99.90;;;;;;5088756;28;19932;-75
2023/04/06 12:11:12;;;;;;;;;;;9.30;99.90;;;;;;5088934;28;20011;-73
2023/04/06 12:13:39;;;;;;;;;;;9.10;99.90;;;;;;5089526;28;19928;-74
2023/04/06 12:16:06;;;;;;;;;;;9.00;99.90;;;;;;5086760;28;20010;-74
2023/04/06 12:18:35;;;;;;;;;;;8.80;99.90;;;;;;5089522;28;19924;-74
2023/04/06 12:21:02;;;;;;;;;;;8.80;99.90;;;;;;5087094;28;19927;-75
2023/04/06 12:23:28;;;;;;;;;;;9.20;99.90;;;;;;5085258;28;19924;-73
2023/04/06 12:25:55;;;;;;;;;;;;;;;;;;5089061;28;19929;-73
2023/04/06 12:28:26;;;;;;;;;;;;;;;;;;5091125;28;20291;-74
2023/04/06 12:30:56;;;;;;;;;;;9.30;99.90;;;;;;5087545;28;19924;-73
2023/04/06 12:33:23;;;;;;;;;;;;;;;;;;5090705;28;19928;-74
2023/04/06 12:35:50;;;;;;;;;;;;;;;;;;5086346;28;19928;-73
2023/04/06 12:38:16;;;;;;;;;;;9.80;99.90;;;;;;5090177;28;19924;-73
2023/04/06 12:40:44;;;;;;;;;;;9.20;99.90;;;;;;5083800;28;19931;-73
2023/04/06 12:43:10;;;;;;;;;;;9.10;99.90;;;;;;5084747;28;19932;-74
2023/04/06 12:45:37;;;;;;;;;;;8.90;99.90;;;;;;5088609;28;19969;-73
2023/04/06 12:48:07;;;;;;;;;;;9.40;99.90;;;;;;5097680;22;19981;-73
2023/04/06 12:50:35;;;;;;;;;;;9.30;99.90;;;;;;5101458;28;19924;-73
2023/04/06 12:53:02;;;;;;;;;;;8.90;99.90;;;;;;5106311;28;19969;-75
2023/04/06 12:55:31;;;;;;;;;;;8.90;99.90;;;;;;5108326;28;19931;-75
2023/04/06 12:57:58;;;;;;;;;;;9.00;99.90;;;;;;5104408;28;20344;-74
2023/04/06 13:00:25;;;;;;;;;;;9.20;99.90;;;;;;5100187;28;20537;-75
2023/04/06 13:02:52;;;;;;;;;;;9.10;99.90;;;;;;5102748;28;20018;-74
2023/04/06 13:05:20;;;;;;;;;;;9.10;99.90;;;;;;5100705;28;19932;-74
2023/04/06 13:07:47;;;;;;;;;;;9.10;99.90;;;;;;5106056;28;19928;-73
2023/04/06 13:10:14;;;;;;;;;;;9.00;99.90;;;;;;5108164;28;19923;-73
2023/04/06 13:12:41;;;;;;;;;;;9.00;99.90;;;;;;5105085;28;19993;-74
2023/04/06 13:15:08;;;;;;;;;;;9.10;99.90;;;;;;5106389;28;19932;-73
2023/04/06 13:17:35;;;;;;;;;;;10.40;99.90;;;;;;5102366;28;19928;-73
2023/04/06 13:20:03;;;;;;;;;;;9.00;99.90;;;;;;5105741;28;20414;-69
2023/04/06 13:22:31;;;;;;;;;;;8.90;99.90;;;;;;5105070;28;19930;-73
2023/04/06 13:24:58;;;;;;;;;;;9.00;99.90;;;;;;5102517;28;20006;-74
2023/04/06 13:27:25;;;;;;;;;;;8.70;99.90;;;;;;5107155;28;19924;-73
2023/04/06 13:29:52;;;;;;;;;;;9.10;99.90;;;;;;5097793;27;19931;-72
2023/04/06 13:32:19;;;;;;;;;;;9.00;99.90;;;;;;5103745;28;19947;-72
2023/04/06 13:34:48;;;;;;;;;;;9.10;99.90;;;;;;5104352;28;19946;-73
2023/04/06 13:37:16;;;;;;;;;;;9.10;99.90;;;;;;5100574;28;19959;-72
2023/04/06 13:39:44;;;;;;;;;;;9.20;99.90;;;;;;5101916;28;19938;-74
2023/04/06 13:42:11;;;;;;;;;;;9.10;99.90;;;;;;5099438;27;19985;-74
2023/04/06 13:44:38;;;;;;;;;;;9.20;99.90;;;;;;5100183;27;19932;-73
2023/04/06 13:47:05;;;;;;;;;;;9.20;99.90;;;;;;5102435;27;19981;-74
2023/04/06 13:49:32;;;;;;;;;;;9.20;99.90;;;;;;5100756;28;19973;-73
2023/04/06 13:51:59;;;;;;;;;;;9.30;99.90;;;;;;5101185;28;19930;-74
2023/04/06 13:54:27;;;;;;;;;;;9.30;99.90;;;;;;5102128;28;19924;-75
2023/04/06 13:56:56;;;;;;;;;;;9.30;99.90;;;;;;5104746;28;19932;-73
2023/04/06 13:59:23;;;;;;;;;;;9.30;99.90;;;;;;5102510;28;19951;-73
2023/04/06 14:01:49;;;;;;;;;;;9.30;99.90;;;;;;5103059;28;19931;-74
2023/04/06 14:04:16;;;;;;;;;;;9.30;99.90;;;;;;5107035;28;20002;-73
2023/04/06 14:06:45;;;;;;;;;;;9.20;99.90;;;;;;5105355;28;19966;-74
2023/04/06 14:09:12;;;;;;;;;;;9.20;99.90;;;;;;5102143;28;20462;-75
2023/04/06 14:11:38;;;;;;;;;;;9.20;99.90;;;;;;5101781;28;20370;-75
2023/04/06 14:14:06;;;;;;;;;;;9.40;99.90;;;;;;5106372;28;20430;-73
2023/04/06 14:16:33;;;;;;;;;;;9.10;99.90;;;;;;5101189;28;19934;-73
2023/04/06 14:19:02;;;;;;;;;;;9.30;99.90;;;;;;5101692;28;20480;-74
2023/04/06 14:21:29;;;;;;;;;;;9.50;99.90;;;;;;5100462;28;20466;-73
2023/04/06 14:23:56;;;;;;;;;;;9.30;99.90;;;;;;5099297;28;19924;-73
2023/04/06 14:26:23;;;;;;;;;;;9.40;99.90;;;;;;5099693;28;20070;-72
2023/04/06 14:28:50;;;;;;;;;;;9.20;99.90;;;;;;5101206;28;20358;-73
2023/04/06 14:31:18;;;;;;;;;;;9.20;99.90;;;;;;5106107;28;19955;-74
2023/04/06 14:33:45;;;;;;;;;;;9.20;99.90;;;;;;5105101;28;19932;-73
2023/04/06 14:36:12;;;;;;;;;;;9.20;99.90;;;;;;5107047;27;19930;-73
2023/04/06 14:38:40;;;;;;;;;;;9.10;99.90;;;;;;5105440;27;19938;-72
2023/04/06 14:41:06;;;;;;;;;;;9.20;99.90;;;;;;5105109;28;19932;-71
2023/04/06 14:43:34;;;;;;;;;;;9.40;99.90;;;;;;5097052;28;19924;-72
2023/04/06 14:46:01;;;;;;;;;;;9.40;99.90;;;;;;5099842;28;19940;-73
2023/04/06 14:48:29;;;;;;;;;;;9.50;99.90;;;;;;5099860;28;20442;-73
2023/04/06 14:50:57;;;;;;;;;;;9.50;99.90;;;;;;5101370;28;19924;-72
2023/04/06 14:53:23;;;;;;;;;;;9.50;99.90;;;;;;5098463;28;19932;-73
2023/04/06 14:55:51;;;;;;;;;;;9.50;99.90;;;;;;5102633;28;19932;-74